Terminal Aerodrome Forecast
Issued by NWS

Home | Current Version | Previous Version | Graphics & Text | Print | Product List | Glossary On
Versions: 1 2 3 4 5 6 7 8 9 10 11 12 13 14 15 16 17 18 19 20 21 22 23 24 25 26 27 28
000
FTUS43 KABR 260206 AAA
TAFATY
TAF AMD
KATY 260206Z 2602/2624 14009KT P6SM VCTS SCT050CB
      TEMPO 2602/2603 33018KT 4SM -TSRA BR
     FM260300 14020G35KT P6SM -RA VCTS SCT050CB
     FM260500 14008KT P6SM BKN150=

USA.gov is the U.S. government's official web portal to all federal, state and local government web resources and services.